Time;durP1;ratioP1;P1;durP2;ratioP2;P2;SDS_P1;SDS_P2;PMS_P1;PMS_P2;Temp;Humidity;BMP_temperature;BMP_pressure;BME280_temperature;BME280_humidity;BME280_pressure;Samples;Min_cycle;Max_cycle;Signal;HPM_P1;HPM_P2
2022/02/12 00:00:56;;;;;;;;;90.00;75.50;;;;;;;;2;279083891;279083891;-78
2022/02/12 00:25:28;;;;;;;;;136.50;128.50;;;;;;;;175410;28;261075409;-78
2022/02/12 00:34:55;;;;;;;;;76.00;66.50;;;;;;;;2;288082646;288082646;-77
2022/02/12 00:43:10;;;;;;;;;70.50;61.50;;;;;;;;2;261078777;261078777;-76
2022/02/12 00:52:38;;;;;;;;;76.00;72.50;;;;;;;;2;288082636;288082636;-76
2022/02/12 01:00:54;;;;;;;;;70.50;57.00;;;;;;;;2;261076736;261076736;-76
2022/02/12 01:10:21;;;;;;;;;71.50;52.00;;;;;;;;2;288081805;288081805;-76
2022/02/12 01:18:37;;;;;;;;;83.50;76.00;;;;;;;;2;261076464;261076464;-77
2022/02/12 01:28:04;;;;;;;;;82.50;80.00;;;;;;;;2;288080906;288080906;-76
2022/02/12 01:36:20;;;;;;;;;75.00;66.50;;;;;;;;2;261077122;261077122;-76
2022/02/12 01:45:47;;;;;;;;;92.50;88.00;;;;;;;;2;288084841;288084841;-76
2022/02/12 01:54:03;;;;;;;;;74.00;57.50;;;;;;;;2;261077175;261077175;-76
2022/02/12 02:03:31;;;;;;;;;50.50;43.00;;;;;;;;2;288084820;288084820;-76
2022/02/12 02:11:47;;;;;;;;;67.00;58.00;;;;;;;;2;261078423;261078423;-77
2022/02/12 02:21:18;;;;;;;;;64.50;53.50;;;;;;;;2;288082206;288082206;-76
2022/02/12 02:29:36;;;;;;;;;63.00;52.00;;;;;;;;2;261075955;261075955;-76
2022/02/12 02:39:04;;;;;;;;;63.50;51.00;;;;;;;;2;288084303;288084303;-76
2022/02/12 02:57:06;;;;;;;;;48.50;37.50;;;;;;;;2;288083352;288083352;-76
2022/02/12 03:05:21;;;;;;;;;67.00;54.50;;;;;;;;2;261079289;261079289;-78
2022/02/12 03:14:49;;;;;;;;;75.50;71.00;;;;;;;;2;288085668;288085668;-76
2022/02/12 03:23:05;;;;;;;;;76.50;68.00;;;;;;;;2;261075603;261075603;-76
2022/02/12 03:32:32;;;;;;;;;63.00;54.00;;;;;;;;2;288082162;288082162;-76
2022/02/12 03:40:49;;;;;;;;;71.50;63.50;;;;;;;;2;261079140;261079140;-76
2022/02/12 03:50:17;;;;;;;;;61.50;51.50;;;;;;;;2;288083101;288083101;-76
2022/02/12 03:58:32;;;;;;;;;62.00;51.50;;;;;;;;2;261075783;261075783;-76
2022/02/12 04:08:00;;;;;;;;;56.50;47.00;;;;;;;;2;288087940;288087940;-76
2022/02/12 04:16:15;;;;;;;;;69.50;59.50;;;;;;;;2;261078518;261078518;-76
2022/02/12 04:25:43;;;;;;;;;69.50;61.50;;;;;;;;2;288082920;288082920;-76
2022/02/12 04:33:58;;;;;;;;;62.50;51.00;;;;;;;;2;261074947;261074947;-76
2022/02/12 04:43:26;;;;;;;;;63.50;52.50;;;;;;;;2;288083508;288083508;-76
2022/02/12 04:51:41;;;;;;;;;51.00;43.50;;;;;;;;2;261074599;261074599;-76
2022/02/12 05:01:20;;;;;;;;;65.00;54.00;;;;;;;;2;288085649;288085649;-76
2022/02/12 05:09:35;;;;;;;;;63.50;54.00;;;;;;;;2;261076954;261076954;-76
2022/02/12 05:19:03;;;;;;;;;51.50;41.50;;;;;;;;2;288084913;288084913;-76
2022/02/12 05:27:19;;;;;;;;;55.50;44.50;;;;;;;;2;261074919;261074919;-76
2022/02/12 05:36:47;;;;;;;;;55.00;45.00;;;;;;;;2;288083348;288083348;-76
2022/02/12 05:45:02;;;;;;;;;55.50;43.00;;;;;;;;2;261078310;261078310;-78
2022/02/12 05:54:30;;;;;;;;;57.50;43.50;;;;;;;;2;288081606;288081606;-78
2022/02/12 06:02:45;;;;;;;;;53.50;45.50;;;;;;;;2;261074905;261074905;-78
2022/02/12 06:12:13;;;;;;;;;37.50;34.50;;;;;;;;2;288083100;288083100;-78
2022/02/12 06:20:29;;;;;;;;;48.50;41.50;;;;;;;;2;261077801;261077801;-76
2022/02/12 06:29:56;;;;;;;;;63.00;46.50;;;;;;;;2;288083648;288083648;-76
2022/02/12 06:38:12;;;;;;;;;52.50;44.50;;;;;;;;2;261076815;261076815;-76
2022/02/12 06:47:39;;;;;;;;;57.50;48.00;;;;;;;;2;288083857;288083857;-78
2022/02/12 06:55:55;;;;;;;;;51.50;44.00;;;;;;;;2;261078494;261078494;-76
2022/02/12 07:05:22;;;;;;;;;61.50;50.00;;;;;;;;2;288084117;288084117;-76
2022/02/12 07:13:38;;;;;;;;;42.50;37.50;;;;;;;;2;261077603;261077603;-79
2022/02/12 07:23:05;;;;;;;;;66.50;50.50;;;;;;;;2;288082823;288082823;-76
2022/02/12 07:31:21;;;;;;;;;63.50;52.50;;;;;;;;2;261077192;261077192;-77
2022/02/12 07:40:48;;;;;;;;;39.00;32.50;;;;;;;;2;288084164;288084164;-77
2022/02/12 07:49:04;;;;;;;;;64.50;53.50;;;;;;;;2;261075000;261075000;-77
2022/02/12 07:58:59;;;;;;;;;51.00;39.00;;;;;;;;2;288082903;288082903;-81
2022/02/12 08:07:29;;;;;;;;;35.00;32.50;;;;;;;;2;261078229;261078229;-78
2022/02/12 08:16:57;;;;;;;;;63.00;52.00;;;;;;;;2;288082271;288082271;-77
2022/02/12 08:25:12;;;;;;;;;60.00;49.50;;;;;;;;2;261081320;261081320;-78
2022/02/12 08:34:42;;;;;;;;;62.00;51.00;;;;;;;;2;288083915;288083915;-75
2022/02/12 08:42:58;;;;;;;;;53.00;41.50;;;;;;;;2;261080988;261080988;-75
2022/02/12 08:52:25;;;;;;;;;54.00;46.00;;;;;;;;2;288084843;288084843;-74
2022/02/12 09:00:41;;;;;;;;;57.00;48.00;;;;;;;;2;261075588;261075588;-77
2022/02/12 09:10:09;;;;;;;;;55.50;46.50;;;;;;;;2;288087285;288087285;-76
2022/02/12 09:18:25;;;;;;;;;63.50;47.50;;;;;;;;2;261078003;261078003;-73
2022/02/12 09:27:53;;;;;;;;;43.00;38.00;;;;;;;;2;288081166;288081166;-76
2022/02/12 09:36:09;;;;;;;;;54.50;42.00;;;;;;;;2;261076798;261076798;-75
2022/02/12 09:45:43;;;;;;;;;57.50;48.00;;;;;;;;2;288082499;288082499;-75
2022/02/12 09:53:59;;;;;;;;;47.50;41.00;;;;;;;;2;261073210;261073210;-76
2022/02/12 10:03:26;;;;;;;;;48.50;40.50;;;;;;;;2;288085797;288085797;-75
2022/02/12 10:11:49;;;;;;;;;64.50;49.00;;;;;;;;2;261076620;261076620;-75
2022/02/12 10:21:16;;;;;;;;;64.50;53.00;;;;;;;;2;288082603;288082603;-75
2022/02/12 10:29:32;;;;;;;;;46.00;40.00;;;;;;;;2;261076400;261076400;-75
2022/02/12 10:39:00;;;;;;;;;44.00;38.00;;;;;;;;2;288083651;288083651;-73
2022/02/12 10:47:15;;;;;;;;;46.00;39.50;;;;;;;;2;261078783;261078783;-75
2022/02/12 10:56:47;;;;;;;;;46.00;37.00;;;;;;;;2;288082063;288082063;-75
2022/02/12 11:05:03;;;;;;;;;27.00;27.00;;;;;;;;2;261079092;261079092;-76
2022/02/12 11:14:33;;;;;;;;;68.00;58.00;;;;;;;;2;288080666;288080666;-74
2022/02/12 11:22:50;;;;;;;;;107.50;107.50;;;;;;;;2;261076703;261076703;-78
2022/02/12 11:32:22;;;;;;;;;101.50;101.50;;;;;;;;2;288081667;288081667;-76
2022/02/12 11:40:38;;;;;;;;;212.50;212.50;;;;;;;;2;261077303;261077303;-76
2022/02/12 11:50:16;;;;;;;;;258.00;258.00;;;;;;;;2;288083557;288083557;-77
2022/02/12 11:58:41;;;;;;;;;57.50;48.50;;;;;;;;2;261077636;261077636;-77
2022/02/12 12:08:10;;;;;;;;;165.00;165.00;;;;;;;;2;288084004;288084004;-77
2022/02/12 12:16:34;;;;;;;;;170.50;170.50;;;;;;;;2;261075068;261075068;-77
2022/02/12 12:26:06;;;;;;;;;429.50;429.50;;;;;;;;2;288086061;288086061;-74
2022/02/12 12:34:21;;;;;;;;;286.00;286.00;;;;;;;;2;261075230;261075230;-73
2022/02/12 12:44:04;;;;;;;;;133.00;130.50;;;;;;;;2;288083356;288083356;-80
2022/02/12 12:52:23;;;;;;;;;142.50;135.00;;;;;;;;2;261075032;261075032;-80
2022/02/12 13:01:55;;;;;;;;;48.00;41.00;;;;;;;;2;288083487;288083487;-81
2022/02/12 13:10:10;;;;;;;;;50.00;42.50;;;;;;;;2;261078862;261078862;-81
2022/02/12 13:19:38;;;;;;;;;51.00;43.50;;;;;;;;2;288087163;288087163;-80
2022/02/12 13:27:54;;;;;;;;;50.00;42.50;;;;;;;;2;261076808;261076808;-78
2022/02/12 13:37:22;;;;;;;;;43.00;36.00;;;;;;;;2;288085156;288085156;-79
2022/02/12 13:45:42;;;;;;;;;49.00;42.00;;;;;;;;2;261076123;261076123;-79
2022/02/12 13:55:09;;;;;;;;;42.00;36.00;;;;;;;;2;288086902;288086902;-79
2022/02/12 14:03:28;;;;;;;;;29.50;29.00;;;;;;;;2;261078736;261078736;-79
2022/02/12 14:12:56;;;;;;;;;43.50;32.50;;;;;;;;2;288084849;288084849;-79
2022/02/12 14:21:13;;;;;;;;;33.50;32.00;;;;;;;;2;261076103;261076103;-79
2022/02/12 14:30:41;;;;;;;;;27.50;27.00;;;;;;;;2;288084430;288084430;-78
2022/02/12 14:38:58;;;;;;;;;33.50;32.00;;;;;;;;2;261073888;261073888;-79
2022/02/12 14:48:25;;;;;;;;;46.50;40.00;;;;;;;;2;288084510;288084510;-81
2022/02/12 14:56:41;;;;;;;;;31.00;30.00;;;;;;;;2;261077968;261077968;-76
2022/02/12 15:06:08;;;;;;;;;37.50;30.50;;;;;;;;2;288084034;288084034;-76
2022/02/12 15:14:24;;;;;;;;;28.50;28.00;;;;;;;;2;261075460;261075460;-76
2022/02/12 15:23:51;;;;;;;;;30.50;29.00;;;;;;;;2;288083312;288083312;-76
2022/02/12 15:32:07;;;;;;;;;47.00;40.50;;;;;;;;2;261077118;261077118;-76
2022/02/12 15:41:35;;;;;;;;;52.00;42.00;;;;;;;;2;288082410;288082410;-76
2022/02/12 15:49:50;;;;;;;;;52.50;44.50;;;;;;;;2;261076453;261076453;-79
2022/02/12 15:59:18;;;;;;;;;40.00;36.00;;;;;;;;2;288085047;288085047;-78
2022/02/12 16:07:34;;;;;;;;;26.00;25.50;;;;;;;;2;261078262;261078262;-78
2022/02/12 16:17:01;;;;;;;;;52.00;44.00;;;;;;;;2;288085154;288085154;-78
2022/02/12 16:25:17;;;;;;;;;51.50;41.50;;;;;;;;2;261074625;261074625;-81
2022/02/12 16:34:46;;;;;;;;;36.00;32.00;;;;;;;;2;288084059;288084059;-77
2022/02/12 16:43:01;;;;;;;;;69.50;62.50;;;;;;;;2;261077011;261077011;-76
2022/02/12 16:52:29;;;;;;;;;68.50;56.00;;;;;;;;2;288086272;288086272;-75
2022/02/12 17:00:44;;;;;;;;;64.00;54.00;;;;;;;;2;261073414;261073414;-74
2022/02/12 17:10:12;;;;;;;;;74.50;62.50;;;;;;;;2;288085682;288085682;-72
2022/02/12 17:18:27;;;;;;;;;131.00;131.00;;;;;;;;2;261077437;261077437;-71
2022/02/12 17:27:55;;;;;;;;;123.50;118.00;;;;;;;;2;288082846;288082846;-72
2022/02/12 17:36:12;;;;;;;;;119.00;119.00;;;;;;;;2;261078476;261078476;-78
2022/02/12 17:45:40;;;;;;;;;79.00;73.50;;;;;;;;2;288087232;288087232;-76
2022/02/12 17:53:55;;;;;;;;;74.00;69.00;;;;;;;;2;261077454;261077454;-78
2022/02/12 18:03:23;;;;;;;;;54.00;47.50;;;;;;;;2;288083908;288083908;-77
2022/02/12 18:11:40;;;;;;;;;78.50;73.00;;;;;;;;2;261076783;261076783;-79
2022/02/12 18:21:07;;;;;;;;;81.50;76.00;;;;;;;;2;288085689;288085689;-79
2022/02/12 18:29:23;;;;;;;;;75.50;68.50;;;;;;;;2;261078144;261078144;-79
2022/02/12 18:38:50;;;;;;;;;58.50;44.00;;;;;;;;2;288085120;288085120;-75
2022/02/12 18:47:06;;;;;;;;;60.50;49.50;;;;;;;;2;261077433;261077433;-75
2022/02/12 18:56:36;;;;;;;;;60.00;50.00;;;;;;;;2;288084307;288084307;-75
2022/02/12 19:04:52;;;;;;;;;59.00;48.00;;;;;;;;2;261074269;261074269;-75
2022/02/12 19:14:19;;;;;;;;;51.50;43.50;;;;;;;;2;288086062;288086062;-76
2022/02/12 19:22:35;;;;;;;;;93.00;92.00;;;;;;;;2;261077266;261077266;-76
2022/02/12 19:32:03;;;;;;;;;49.50;39.00;;;;;;;;2;288085233;288085233;-76
2022/02/12 19:40:19;;;;;;;;;58.00;46.00;;;;;;;;2;261074703;261074703;-76
2022/02/12 19:49:47;;;;;;;;;81.50;72.00;;;;;;;;2;288082953;288082953;-76
2022/02/12 19:58:02;;;;;;;;;79.50;76.00;;;;;;;;2;261075128;261075128;-76
2022/02/12 20:07:32;;;;;;;;;56.00;47.00;;;;;;;;2;288080864;288080864;-76
2022/02/12 20:15:50;;;;;;;;;60.00;49.00;;;;;;;;2;261078676;261078676;-76
2022/02/12 20:25:18;;;;;;;;;20.50;20.50;;;;;;;;2;288085194;288085194;-76
2022/02/12 20:33:35;;;;;;;;;58.50;48.50;;;;;;;;2;261074187;261074187;-75
2022/02/12 20:43:03;;;;;;;;;77.00;66.00;;;;;;;;2;288085666;288085666;-75
2022/02/12 20:51:18;;;;;;;;;59.00;48.50;;;;;;;;2;261077339;261077339;-76
2022/02/12 21:00:46;;;;;;;;;64.50;50.00;;;;;;;;2;288085031;288085031;-76
2022/02/12 21:09:02;;;;;;;;;51.50;43.00;;;;;;;;2;261076607;261076607;-75
2022/02/12 21:18:34;;;;;;;;;49.00;42.00;;;;;;;;2;288086686;288086686;-76
2022/02/12 21:26:51;;;;;;;;;52.00;43.00;;;;;;;;2;261076412;261076412;-76
2022/02/12 21:36:18;;;;;;;;;56.00;46.00;;;;;;;;2;288081775;288081775;-76
2022/02/12 21:44:34;;;;;;;;;59.50;49.50;;;;;;;;2;261076057;261076057;-76
2022/02/12 21:54:02;;;;;;;;;68.00;57.00;;;;;;;;2;288081502;288081502;-76
2022/02/12 22:02:17;;;;;;;;;55.50;46.50;;;;;;;;2;261077029;261077029;-76
2022/02/12 22:11:45;;;;;;;;;64.50;52.50;;;;;;;;2;288086404;288086404;-76
2022/02/12 22:20:01;;;;;;;;;57.50;48.00;;;;;;;;2;261077648;261077648;-76
2022/02/12 22:29:28;;;;;;;;;72.00;56.00;;;;;;;;2;288086291;288086291;-74
2022/02/12 22:37:44;;;;;;;;;69.00;52.50;;;;;;;;2;261081147;261081147;-75
2022/02/12 22:47:12;;;;;;;;;59.00;47.50;;;;;;;;2;288082427;288082427;-75
2022/02/12 22:55:27;;;;;;;;;52.00;44.00;;;;;;;;2;261075520;261075520;-76
2022/02/12 23:04:55;;;;;;;;;71.00;62.50;;;;;;;;2;288085878;288085878;-74
2022/02/12 23:13:31;;;;;;;;;58.00;47.50;;;;;;;;2;261075511;261075511;-75
2022/02/12 23:22:58;;;;;;;;;63.50;51.00;;;;;;;;2;288085256;288085256;-75
2022/02/12 23:31:14;;;;;;;;;68.50;59.50;;;;;;;;2;261075981;261075981;-75
2022/02/12 23:40:42;;;;;;;;;70.50;50.50;;;;;;;;2;288086291;288086291;-75
2022/02/12 23:48:57;;;;;;;;;51.50;42.50;;;;;;;;2;261075625;261075625;-75
2022/02/12 23:58:26;;;;;;;;;56.00;47.00;;;;;;;;2;288085700;288085700;-75
